Metar z połowy godziny Komunikat METAR ze strony awiacja.imgw.pl Metar Mil EPTM METAR EPTM 261300Z 28010KT 9999 FEW016 OVC040 01/M02 Q1007 RMK 007 083 8/2=